sensor_id;sensor_type;location;lat;lon;timestamp;P1;durP1;ratioP1;P2;durP2;ratioP2
10216;SDS011;5152;59.674;16.838;2022-10-20T00:00:31;0.33;;;0.33;;
10216;SDS011;5152;59.674;16.838;2022-10-20T00:02:58;0.50;;;0.23;;
10216;SDS011;5152;59.674;16.838;2022-10-20T00:05:24;0.47;;;0.40;;
10216;SDS011;5152;59.674;16.838;2022-10-20T00:07:52;0.40;;;0.30;;
10216;SDS011;5152;59.674;16.838;2022-10-20T00:10:19;0.40;;;0.40;;
10216;SDS011;5152;59.674;16.838;2022-10-20T00:12:46;0.30;;;0.30;;
10216;SDS011;5152;59.674;16.838;2022-10-20T00:15:13;0.60;;;0.20;;
10216;SDS011;5152;59.674;16.838;2022-10-20T00:17:39;0.37;;;0.30;;
10216;SDS011;5152;59.674;16.838;2022-10-20T00:20:09;0.77;;;0.50;;
10216;SDS011;5152;59.674;16.838;2022-10-20T00:22:36;0.70;;;0.40;;
10216;SDS011;5152;59.674;16.838;2022-10-20T00:25:04;0.63;;;0.40;;
10216;SDS011;5152;59.674;16.838;2022-10-20T00:27:31;0.17;;;0.17;;
10216;SDS011;5152;59.674;16.838;2022-10-20T00:29:58;0.40;;;0.40;;
10216;SDS011;5152;59.674;16.838;2022-10-20T00:32:25;0.97;;;0.20;;
10216;SDS011;5152;59.674;16.838;2022-10-20T00:34:53;0.70;;;0.50;;
10216;SDS011;5152;59.674;16.838;2022-10-20T00:37:20;4.43;;;0.50;;
10216;SDS011;5152;59.674;16.838;2022-10-20T00:39:47;0.20;;;0.20;;
10216;SDS011;5152;59.674;16.838;2022-10-20T00:42:15;0.23;;;0.20;;
10216;SDS011;5152;59.674;16.838;2022-10-20T00:44:46;0.50;;;0.43;;
10216;SDS011;5152;59.674;16.838;2022-10-20T00:47:15;0.43;;;0.40;;
10216;SDS011;5152;59.674;16.838;2022-10-20T00:49:44;1.00;;;0.50;;
10216;SDS011;5152;59.674;16.838;2022-10-20T00:52:11;0.17;;;0.17;;
10216;SDS011;5152;59.674;16.838;2022-10-20T00:54:38;0.30;;;0.30;;
10216;SDS011;5152;59.674;16.838;2022-10-20T00:57:05;0.73;;;0.43;;
10216;SDS011;5152;59.674;16.838;2022-10-20T00:59:33;0.30;;;0.20;;
10216;SDS011;5152;59.674;16.838;2022-10-20T01:02:02;1.47;;;0.30;;
10216;SDS011;5152;59.674;16.838;2022-10-20T01:04:30;0.83;;;0.67;;
10216;SDS011;5152;59.674;16.838;2022-10-20T01:06:57;0.60;;;0.40;;
10216;SDS011;5152;59.674;16.838;2022-10-20T01:09:24;0.30;;;0.30;;
10216;SDS011;5152;59.674;16.838;2022-10-20T01:11:53;0.23;;;0.23;;
10216;SDS011;5152;59.674;16.838;2022-10-20T01:14:30;1.50;;;0.70;;
10216;SDS011;5152;59.674;16.838;2022-10-20T01:17:05;0.20;;;0.20;;
10216;SDS011;5152;59.674;16.838;2022-10-20T01:22:56;0.47;;;0.30;;
10216;SDS011;5152;59.674;16.838;2022-10-20T01:25:33;0.20;;;0.20;;
10216;SDS011;5152;59.674;16.838;2022-10-20T01:28:11;0.50;;;0.43;;
10216;SDS011;5152;59.674;16.838;2022-10-20T01:30:43;0.30;;;0.20;;
10216;SDS011;5152;59.674;16.838;2022-10-20T01:33:14;0.23;;;0.23;;
10216;SDS011;5152;59.674;16.838;2022-10-20T01:35:49;0.60;;;0.40;;
10216;SDS011;5152;59.674;16.838;2022-10-20T01:38:21;0.30;;;0.30;;
10216;SDS011;5152;59.674;16.838;2022-10-20T01:40:50;0.30;;;0.30;;
10216;SDS011;5152;59.674;16.838;2022-10-20T01:43:21;0.27;;;0.27;;
10216;SDS011;5152;59.674;16.838;2022-10-20T01:45:50;0.20;;;0.20;;
10216;SDS011;5152;59.674;16.838;2022-10-20T01:48:19;0.20;;;0.20;;
10216;SDS011;5152;59.674;16.838;2022-10-20T01:50:47;0.40;;;0.40;;
10216;SDS011;5152;59.674;16.838;2022-10-20T01:53:15;0.30;;;0.30;;
10216;SDS011;5152;59.674;16.838;2022-10-20T01:55:41;0.33;;;0.27;;
10216;SDS011;5152;59.674;16.838;2022-10-20T01:58:15;0.20;;;0.20;;
10216;SDS011;5152;59.674;16.838;2022-10-20T02:01:02;0.20;;;0.20;;
10216;SDS011;5152;59.674;16.838;2022-10-20T02:03:36;0.40;;;0.40;;
10216;SDS011;5152;59.674;16.838;2022-10-20T02:06:10;0.20;;;0.20;;
10216;SDS011;5152;59.674;16.838;2022-10-20T02:08:44;0.30;;;0.30;;
10216;SDS011;5152;59.674;16.838;2022-10-20T02:11:13;0.20;;;0.20;;
10216;SDS011;5152;59.674;16.838;2022-10-20T02:13:45;0.33;;;0.30;;
10216;SDS011;5152;59.674;16.838;2022-10-20T02:16:14;0.20;;;0.20;;
10216;SDS011;5152;59.674;16.838;2022-10-20T02:18:44;0.20;;;0.20;;
10216;SDS011;5152;59.674;16.838;2022-10-20T02:21:11;0.73;;;0.40;;
10216;SDS011;5152;59.674;16.838;2022-10-20T02:23:38;0.30;;;0.30;;
10216;SDS011;5152;59.674;16.838;2022-10-20T02:26:07;0.40;;;0.30;;
10216;SDS011;5152;59.674;16.838;2022-10-20T02:28:35;0.23;;;0.23;;
10216;SDS011;5152;59.674;16.838;2022-10-20T02:31:05;0.30;;;0.30;;
10216;SDS011;5152;59.674;16.838;2022-10-20T02:33:33;0.30;;;0.30;;
10216;SDS011;5152;59.674;16.838;2022-10-20T02:36:02;0.30;;;0.30;;
10216;SDS011;5152;59.674;16.838;2022-10-20T02:38:30;1.17;;;0.33;;
10216;SDS011;5152;59.674;16.838;2022-10-20T02:40:56;0.43;;;0.43;;
10216;SDS011;5152;59.674;16.838;2022-10-20T02:43:23;0.60;;;0.40;;
10216;SDS011;5152;59.674;16.838;2022-10-20T02:45:50;1.40;;;0.27;;
10216;SDS011;5152;59.674;16.838;2022-10-20T02:48:16;0.30;;;0.30;;
10216;SDS011;5152;59.674;16.838;2022-10-20T02:50:44;1.50;;;0.50;;
10216;SDS011;5152;59.674;16.838;2022-10-20T02:53:11;0.30;;;0.30;;
10216;SDS011;5152;59.674;16.838;2022-10-20T02:55:38;0.27;;;0.23;;
10216;SDS011;5152;59.674;16.838;2022-10-20T02:58:05;0.23;;;0.23;;
10216;SDS011;5152;59.674;16.838;2022-10-20T03:00:31;0.20;;;0.20;;
10216;SDS011;5152;59.674;16.838;2022-10-20T03:02:58;0.60;;;0.30;;
10216;SDS011;5152;59.674;16.838;2022-10-20T03:05:25;0.30;;;0.30;;
10216;SDS011;5152;59.674;16.838;2022-10-20T03:07:54;0.90;;;0.40;;
10216;SDS011;5152;59.674;16.838;2022-10-20T03:10:21;0.30;;;0.30;;
10216;SDS011;5152;59.674;16.838;2022-10-20T03:12:48;0.30;;;0.30;;
10216;SDS011;5152;59.674;16.838;2022-10-20T03:15:14;1.30;;;0.57;;
10216;SDS011;5152;59.674;16.838;2022-10-20T03:17:41;0.30;;;0.20;;
10216;SDS011;5152;59.674;16.838;2022-10-20T03:20:08;0.20;;;0.20;;
10216;SDS011;5152;59.674;16.838;2022-10-20T03:22:36;0.30;;;0.30;;
10216;SDS011;5152;59.674;16.838;2022-10-20T03:25:04;0.23;;;0.23;;
10216;SDS011;5152;59.674;16.838;2022-10-20T03:27:31;2.07;;;0.27;;
10216;SDS011;5152;59.674;16.838;2022-10-20T03:29:58;0.73;;;0.70;;
10216;SDS011;5152;59.674;16.838;2022-10-20T03:32:24;0.30;;;0.30;;
10216;SDS011;5152;59.674;16.838;2022-10-20T03:34:51;1.03;;;0.40;;
10216;SDS011;5152;59.674;16.838;2022-10-20T03:37:18;0.37;;;0.37;;
10216;SDS011;5152;59.674;16.838;2022-10-20T03:39:44;0.20;;;0.20;;
10216;SDS011;5152;59.674;16.838;2022-10-20T03:42:13;0.43;;;0.20;;
10216;SDS011;5152;59.674;16.838;2022-10-20T03:44:39;0.40;;;0.30;;
10216;SDS011;5152;59.674;16.838;2022-10-20T03:47:09;0.20;;;0.20;;
10216;SDS011;5152;59.674;16.838;2022-10-20T03:49:36;0.50;;;0.50;;
10216;SDS011;5152;59.674;16.838;2022-10-20T03:52:03;0.20;;;0.20;;
10216;SDS011;5152;59.674;16.838;2022-10-20T03:54:30;0.30;;;0.30;;
10216;SDS011;5152;59.674;16.838;2022-10-20T03:56:57;0.40;;;0.20;;
10216;SDS011;5152;59.674;16.838;2022-10-20T03:59:25;0.40;;;0.33;;
10216;SDS011;5152;59.674;16.838;2022-10-20T04:01:52;0.30;;;0.30;;
10216;SDS011;5152;59.674;16.838;2022-10-20T04:04:19;0.30;;;0.20;;
10216;SDS011;5152;59.674;16.838;2022-10-20T04:06:45;0.30;;;0.30;;
10216;SDS011;5152;59.674;16.838;2022-10-20T04:09:13;0.50;;;0.30;;
10216;SDS011;5152;59.674;16.838;2022-10-20T04:11:39;0.63;;;0.30;;
10216;SDS011;5152;59.674;16.838;2022-10-20T04:14:06;0.20;;;0.20;;
10216;SDS011;5152;59.674;16.838;2022-10-20T04:16:34;0.20;;;0.20;;
10216;SDS011;5152;59.674;16.838;2022-10-20T04:19:01;1.70;;;0.20;;
10216;SDS011;5152;59.674;16.838;2022-10-20T04:21:27;0.30;;;0.30;;
10216;SDS011;5152;59.674;16.838;2022-10-20T04:23:54;0.20;;;0.20;;
10216;SDS011;5152;59.674;16.838;2022-10-20T04:26:21;0.40;;;0.40;;
10216;SDS011;5152;59.674;16.838;2022-10-20T04:28:48;0.20;;;0.20;;
10216;SDS011;5152;59.674;16.838;2022-10-20T04:31:14;0.60;;;0.60;;
10216;SDS011;5152;59.674;16.838;2022-10-20T04:33:43;0.37;;;0.30;;
10216;SDS011;5152;59.674;16.838;2022-10-20T04:36:10;0.50;;;0.40;;
10216;SDS011;5152;59.674;16.838;2022-10-20T04:38:37;0.47;;;0.37;;
10216;SDS011;5152;59.674;16.838;2022-10-20T04:41:04;0.63;;;0.27;;
10216;SDS011;5152;59.674;16.838;2022-10-20T04:43:31;1.63;;;0.30;;
10216;SDS011;5152;59.674;16.838;2022-10-20T04:45:58;0.20;;;0.20;;
10216;SDS011;5152;59.674;16.838;2022-10-20T04:48:26;0.10;;;0.10;;
10216;SDS011;5152;59.674;16.838;2022-10-20T04:50:59;1.13;;;0.40;;
10216;SDS011;5152;59.674;16.838;2022-10-20T04:53:27;1.27;;;0.80;;
10216;SDS011;5152;59.674;16.838;2022-10-20T04:55:54;1.53;;;0.50;;
10216;SDS011;5152;59.674;16.838;2022-10-20T04:58:20;0.67;;;0.40;;
10216;SDS011;5152;59.674;16.838;2022-10-20T05:00:47;1.80;;;0.53;;
10216;SDS011;5152;59.674;16.838;2022-10-20T05:03:14;0.47;;;0.47;;
10216;SDS011;5152;59.674;16.838;2022-10-20T05:05:43;0.57;;;0.50;;
10216;SDS011;5152;59.674;16.838;2022-10-20T05:08:11;0.57;;;0.43;;
10216;SDS011;5152;59.674;16.838;2022-10-20T05:10:37;0.43;;;0.40;;
10216;SDS011;5152;59.674;16.838;2022-10-20T05:13:04;1.67;;;0.37;;
10216;SDS011;5152;59.674;16.838;2022-10-20T05:15:31;4.00;;;0.87;;
10216;SDS011;5152;59.674;16.838;2022-10-20T05:17:58;0.80;;;0.50;;
10216;SDS011;5152;59.674;16.838;2022-10-20T05:20:24;0.50;;;0.50;;
10216;SDS011;5152;59.674;16.838;2022-10-20T05:22:51;0.60;;;0.57;;
10216;SDS011;5152;59.674;16.838;2022-10-20T05:25:19;0.77;;;0.67;;
10216;SDS011;5152;59.674;16.838;2022-10-20T05:27:46;1.10;;;0.43;;
10216;SDS011;5152;59.674;16.838;2022-10-20T05:30:12;0.87;;;0.50;;
10216;SDS011;5152;59.674;16.838;2022-10-20T05:32:39;1.43;;;0.50;;
10216;SDS011;5152;59.674;16.838;2022-10-20T05:35:06;0.77;;;0.50;;
10216;SDS011;5152;59.674;16.838;2022-10-20T05:37:33;0.87;;;0.50;;
10216;SDS011;5152;59.674;16.838;2022-10-20T05:40:00;0.80;;;0.60;;
10216;SDS011;5152;59.674;16.838;2022-10-20T05:42:29;0.70;;;0.53;;
10216;SDS011;5152;59.674;16.838;2022-10-20T05:44:56;2.23;;;0.70;;
10216;SDS011;5152;59.674;16.838;2022-10-20T05:47:22;1.40;;;0.60;;
10216;SDS011;5152;59.674;16.838;2022-10-20T05:49:49;0.67;;;0.60;;
10216;SDS011;5152;59.674;16.838;2022-10-20T05:52:16;1.20;;;0.53;;
10216;SDS011;5152;59.674;16.838;2022-10-20T05:54:43;0.50;;;0.50;;
10216;SDS011;5152;59.674;16.838;2022-10-20T05:57:09;1.07;;;0.77;;
10216;SDS011;5152;59.674;16.838;2022-10-20T05:59:37;2.83;;;0.60;;
10216;SDS011;5152;59.674;16.838;2022-10-20T06:02:04;0.70;;;0.50;;
10216;SDS011;5152;59.674;16.838;2022-10-20T06:04:31;0.93;;;0.50;;
10216;SDS011;5152;59.674;16.838;2022-10-20T06:06:58;1.33;;;0.50;;
10216;SDS011;5152;59.674;16.838;2022-10-20T06:09:25;1.13;;;0.67;;
10216;SDS011;5152;59.674;16.838;2022-10-20T06:11:52;1.07;;;0.67;;
10216;SDS011;5152;59.674;16.838;2022-10-20T06:14:19;2.10;;;0.60;;
10216;SDS011;5152;59.674;16.838;2022-10-20T06:16:49;1.00;;;0.73;;
10216;SDS011;5152;59.674;16.838;2022-10-20T06:19:17;1.73;;;0.50;;
10216;SDS011;5152;59.674;16.838;2022-10-20T06:21:44;1.33;;;0.60;;
10216;SDS011;5152;59.674;16.838;2022-10-20T06:24:11;3.70;;;0.90;;
10216;SDS011;5152;59.674;16.838;2022-10-20T06:26:38;0.60;;;0.50;;
10216;SDS011;5152;59.674;16.838;2022-10-20T06:29:05;0.60;;;0.60;;
10216;SDS011;5152;59.674;16.838;2022-10-20T06:31:33;1.17;;;0.70;;
10216;SDS011;5152;59.674;16.838;2022-10-20T06:34:05;1.20;;;0.50;;
10216;SDS011;5152;59.674;16.838;2022-10-20T06:36:33;3.63;;;0.67;;
10216;SDS011;5152;59.674;16.838;2022-10-20T06:39:00;1.17;;;0.60;;
10216;SDS011;5152;59.674;16.838;2022-10-20T06:41:28;2.20;;;0.57;;
10216;SDS011;5152;59.674;16.838;2022-10-20T06:43:55;0.77;;;0.70;;
10216;SDS011;5152;59.674;16.838;2022-10-20T06:46:24;0.70;;;0.43;;
10216;SDS011;5152;59.674;16.838;2022-10-20T06:48:52;0.70;;;0.50;;
10216;SDS011;5152;59.674;16.838;2022-10-20T06:51:20;0.77;;;0.50;;
10216;SDS011;5152;59.674;16.838;2022-10-20T06:53:47;1.10;;;0.60;;
10216;SDS011;5152;59.674;16.838;2022-10-20T06:56:14;0.40;;;0.40;;
10216;SDS011;5152;59.674;16.838;2022-10-20T06:58:43;1.33;;;0.60;;
10216;SDS011;5152;59.674;16.838;2022-10-20T07:01:12;1.43;;;0.57;;
10216;SDS011;5152;59.674;16.838;2022-10-20T07:03:39;0.93;;;0.50;;
10216;SDS011;5152;59.674;16.838;2022-10-20T07:06:06;0.53;;;0.50;;
10216;SDS011;5152;59.674;16.838;2022-10-20T07:08:35;2.93;;;0.77;;
10216;SDS011;5152;59.674;16.838;2022-10-20T07:11:03;0.53;;;0.53;;
10216;SDS011;5152;59.674;16.838;2022-10-20T07:13:31;0.80;;;0.60;;
10216;SDS011;5152;59.674;16.838;2022-10-20T07:15:59;1.00;;;0.50;;
10216;SDS011;5152;59.674;16.838;2022-10-20T07:18:26;0.43;;;0.43;;
10216;SDS011;5152;59.674;16.838;2022-10-20T07:20:55;2.67;;;0.70;;
10216;SDS011;5152;59.674;16.838;2022-10-20T07:23:22;1.00;;;0.73;;
10216;SDS011;5152;59.674;16.838;2022-10-20T07:25:51;0.87;;;0.80;;
10216;SDS011;5152;59.674;16.838;2022-10-20T07:28:17;0.80;;;0.47;;
10216;SDS011;5152;59.674;16.838;2022-10-20T07:30:45;1.60;;;0.70;;
10216;SDS011;5152;59.674;16.838;2022-10-20T07:33:12;0.80;;;0.70;;
10216;SDS011;5152;59.674;16.838;2022-10-20T07:35:39;0.60;;;0.60;;
10216;SDS011;5152;59.674;16.838;2022-10-20T07:38:06;0.80;;;0.80;;
10216;SDS011;5152;59.674;16.838;2022-10-20T07:40:32;1.17;;;0.80;;
10216;SDS011;5152;59.674;16.838;2022-10-20T07:43:01;1.43;;;0.80;;
10216;SDS011;5152;59.674;16.838;2022-10-20T07:45:27;0.60;;;0.60;;
10216;SDS011;5152;59.674;16.838;2022-10-20T07:47:54;2.17;;;0.90;;
10216;SDS011;5152;59.674;16.838;2022-10-20T07:50:21;0.83;;;0.80;;
10216;SDS011;5152;59.674;16.838;2022-10-20T07:52:49;0.70;;;0.70;;
10216;SDS011;5152;59.674;16.838;2022-10-20T07:55:17;1.63;;;0.90;;
10216;SDS011;5152;59.674;16.838;2022-10-20T07:57:44;1.20;;;1.07;;
10216;SDS011;5152;59.674;16.838;2022-10-20T08:00:12;2.33;;;1.83;;
10216;SDS011;5152;59.674;16.838;2022-10-20T08:02:39;2.73;;;1.50;;
10216;SDS011;5152;59.674;16.838;2022-10-20T08:05:06;1.27;;;1.10;;
10216;SDS011;5152;59.674;16.838;2022-10-20T08:07:33;3.17;;;2.07;;
10216;SDS011;5152;59.674;16.838;2022-10-20T08:10:00;1.87;;;1.00;;
10216;SDS011;5152;59.674;16.838;2022-10-20T08:12:27;2.07;;;1.50;;
10216;SDS011;5152;59.674;16.838;2022-10-20T08:14:53;3.03;;;1.80;;
10216;SDS011;5152;59.674;16.838;2022-10-20T08:17:22;5.50;;;2.27;;
10216;SDS011;5152;59.674;16.838;2022-10-20T08:19:49;1.73;;;1.50;;
10216;SDS011;5152;59.674;16.838;2022-10-20T08:22:16;0.90;;;0.90;;
10216;SDS011;5152;59.674;16.838;2022-10-20T08:24:44;1.60;;;1.00;;
10216;SDS011;5152;59.674;16.838;2022-10-20T08:27:10;2.20;;;1.20;;
10216;SDS011;5152;59.674;16.838;2022-10-20T08:29:37;3.80;;;1.77;;
10216;SDS011;5152;59.674;16.838;2022-10-20T08:32:04;3.67;;;1.50;;
10216;SDS011;5152;59.674;16.838;2022-10-20T08:34:32;3.57;;;1.23;;
10216;SDS011;5152;59.674;16.838;2022-10-20T08:36:59;11.90;;;1.50;;
10216;SDS011;5152;59.674;16.838;2022-10-20T08:39:26;3.30;;;1.40;;
10216;SDS011;5152;59.674;16.838;2022-10-20T08:41:52;3.70;;;1.10;;
10216;SDS011;5152;59.674;16.838;2022-10-20T08:44:20;3.27;;;1.03;;
10216;SDS011;5152;59.674;16.838;2022-10-20T08:46:49;2.47;;;1.23;;
10216;SDS011;5152;59.674;16.838;2022-10-20T08:49:17;1.63;;;1.20;;
10216;SDS011;5152;59.674;16.838;2022-10-20T08:51:48;1.90;;;1.10;;
10216;SDS011;5152;59.674;16.838;2022-10-20T08:54:15;1.80;;;1.10;;
10216;SDS011;5152;59.674;16.838;2022-10-20T08:56:42;2.40;;;1.30;;
10216;SDS011;5152;59.674;16.838;2022-10-20T08:59:19;1.00;;;0.90;;
10216;SDS011;5152;59.674;16.838;2022-10-20T09:01:50;4.93;;;1.40;;
10216;SDS011;5152;59.674;16.838;2022-10-20T09:04:18;2.97;;;1.23;;
10216;SDS011;5152;59.674;16.838;2022-10-20T09:06:46;2.70;;;1.37;;
10216;SDS011;5152;59.674;16.838;2022-10-20T09:09:19;2.33;;;1.20;;
10216;SDS011;5152;59.674;16.838;2022-10-20T09:11:46;2.80;;;1.20;;
10216;SDS011;5152;59.674;16.838;2022-10-20T09:14:13;2.03;;;1.10;;
10216;SDS011;5152;59.674;16.838;2022-10-20T09:16:41;2.30;;;1.10;;
10216;SDS011;5152;59.674;16.838;2022-10-20T09:19:12;2.03;;;1.20;;
10216;SDS011;5152;59.674;16.838;2022-10-20T09:21:41;1.43;;;1.10;;
10216;SDS011;5152;59.674;16.838;2022-10-20T09:24:11;1.40;;;0.90;;
10216;SDS011;5152;59.674;16.838;2022-10-20T09:26:39;1.97;;;1.10;;
10216;SDS011;5152;59.674;16.838;2022-10-20T09:29:08;1.00;;;0.90;;
10216;SDS011;5152;59.674;16.838;2022-10-20T09:31:37;1.33;;;0.80;;
10216;SDS011;5152;59.674;16.838;2022-10-20T09:34:18;1.90;;;0.90;;
10216;SDS011;5152;59.674;16.838;2022-10-20T09:36:46;1.03;;;0.93;;
10216;SDS011;5152;59.674;16.838;2022-10-20T09:39:18;1.10;;;0.80;;
10216;SDS011;5152;59.674;16.838;2022-10-20T09:41:46;0.90;;;0.90;;
10216;SDS011;5152;59.674;16.838;2022-10-20T09:44:13;1.10;;;0.87;;
10216;SDS011;5152;59.674;16.838;2022-10-20T09:46:43;0.67;;;0.60;;
10216;SDS011;5152;59.674;16.838;2022-10-20T09:49:20;0.70;;;0.70;;
10216;SDS011;5152;59.674;16.838;2022-10-20T09:51:49;1.40;;;0.97;;
10216;SDS011;5152;59.674;16.838;2022-10-20T09:54:18;1.70;;;1.10;;
10216;SDS011;5152;59.674;16.838;2022-10-20T09:56:46;1.73;;;1.20;;
10216;SDS011;5152;59.674;16.838;2022-10-20T09:59:17;1.30;;;0.93;;
10216;SDS011;5152;59.674;16.838;2022-10-20T10:01:52;1.20;;;1.00;;
10216;SDS011;5152;59.674;16.838;2022-10-20T10:04:30;1.20;;;1.00;;
10216;SDS011;5152;59.674;16.838;2022-10-20T10:06:58;1.97;;;1.00;;
10216;SDS011;5152;59.674;16.838;2022-10-20T10:09:27;1.20;;;0.97;;
10216;SDS011;5152;59.674;16.838;2022-10-20T10:11:59;0.87;;;0.73;;
10216;SDS011;5152;59.674;16.838;2022-10-20T10:14:26;0.67;;;0.60;;
10216;SDS011;5152;59.674;16.838;2022-10-20T10:16:54;0.80;;;0.60;;
10216;SDS011;5152;59.674;16.838;2022-10-20T10:19:22;1.63;;;0.93;;
10216;SDS011;5152;59.674;16.838;2022-10-20T10:21:52;0.77;;;0.63;;
10216;SDS011;5152;59.674;16.838;2022-10-20T10:27:17;0.93;;;0.73;;
10216;SDS011;5152;59.674;16.838;2022-10-20T10:29:45;0.60;;;0.50;;
10216;SDS011;5152;59.674;16.838;2022-10-20T10:32:13;0.77;;;0.70;;
10216;SDS011;5152;59.674;16.838;2022-10-20T10:34:55;1.43;;;0.60;;
10216;SDS011;5152;59.674;16.838;2022-10-20T10:37:26;0.60;;;0.60;;
10216;SDS011;5152;59.674;16.838;2022-10-20T10:39:55;2.93;;;0.80;;
10216;SDS011;5152;59.674;16.838;2022-10-20T10:45:36;0.73;;;0.40;;
10216;SDS011;5152;59.674;16.838;2022-10-20T10:51:15;1.20;;;0.60;;
10216;SDS011;5152;59.674;16.838;2022-10-20T10:53:49;0.60;;;0.57;;
10216;SDS011;5152;59.674;16.838;2022-10-20T10:56:24;0.87;;;0.47;;
10216;SDS011;5152;59.674;16.838;2022-10-20T10:58:55;1.30;;;0.60;;
10216;SDS011;5152;59.674;16.838;2022-10-20T11:01:27;0.70;;;0.50;;
10216;SDS011;5152;59.674;16.838;2022-10-20T11:04:17;0.63;;;0.63;;
10216;SDS011;5152;59.674;16.838;2022-10-20T11:07:02;2.10;;;0.60;;
10216;SDS011;5152;59.674;16.838;2022-10-20T11:09:36;0.67;;;0.63;;
10216;SDS011;5152;59.674;16.838;2022-10-20T11:12:27;0.70;;;0.50;;
10216;SDS011;5152;59.674;16.838;2022-10-20T11:15:13;0.83;;;0.50;;
10216;SDS011;5152;59.674;16.838;2022-10-20T11:17:51;0.97;;;0.70;;
10216;SDS011;5152;59.674;16.838;2022-10-20T11:20:23;0.63;;;0.40;;
10216;SDS011;5152;59.674;16.838;2022-10-20T11:23:05;0.90;;;0.70;;
10216;SDS011;5152;59.674;16.838;2022-10-20T11:25:44;0.93;;;0.50;;
10216;SDS011;5152;59.674;16.838;2022-10-20T11:28:22;0.50;;;0.37;;
10216;SDS011;5152;59.674;16.838;2022-10-20T11:30:51;0.60;;;0.57;;
10216;SDS011;5152;59.674;16.838;2022-10-20T11:33:18;0.50;;;0.47;;
10216;SDS011;5152;59.674;16.838;2022-10-20T11:35:52;0.40;;;0.40;;
10216;SDS011;5152;59.674;16.838;2022-10-20T11:38:22;0.80;;;0.43;;
10216;SDS011;5152;59.674;16.838;2022-10-20T11:40:57;2.13;;;0.63;;
10216;SDS011;5152;59.674;16.838;2022-10-20T11:43:28;1.07;;;0.67;;
10216;SDS011;5152;59.674;16.838;2022-10-20T11:45:59;1.30;;;0.37;;
10216;SDS011;5152;59.674;16.838;2022-10-20T11:48:28;1.67;;;0.40;;
10216;SDS011;5152;59.674;16.838;2022-10-20T11:51:01;0.50;;;0.50;;
10216;SDS011;5152;59.674;16.838;2022-10-20T11:53:38;0.60;;;0.60;;
10216;SDS011;5152;59.674;16.838;2022-10-20T12:05:08;0.70;;;0.50;;
10216;SDS011;5152;59.674;16.838;2022-10-20T12:08:07;0.20;;;0.20;;
10216;SDS011;5152;59.674;16.838;2022-10-20T12:10:49;0.53;;;0.53;;
10216;SDS011;5152;59.674;16.838;2022-10-20T12:13:23;2.77;;;0.50;;
10216;SDS011;5152;59.674;16.838;2022-10-20T12:15:57;2.33;;;0.40;;
10216;SDS011;5152;59.674;16.838;2022-10-20T12:18:25;1.40;;;0.50;;
10216;SDS011;5152;59.674;16.838;2022-10-20T12:20:53;1.50;;;0.60;;
10216;SDS011;5152;59.674;16.838;2022-10-20T12:26:38;1.17;;;0.43;;
10216;SDS011;5152;59.674;16.838;2022-10-20T12:35:31;1.47;;;0.60;;
10216;SDS011;5152;59.674;16.838;2022-10-20T12:38:25;0.37;;;0.37;;
10216;SDS011;5152;59.674;16.838;2022-10-20T12:40:54;1.13;;;0.40;;
10216;SDS011;5152;59.674;16.838;2022-10-20T12:43:23;0.80;;;0.50;;
10216;SDS011;5152;59.674;16.838;2022-10-20T12:45:55;1.13;;;0.40;;
10216;SDS011;5152;59.674;16.838;2022-10-20T12:48:25;0.53;;;0.40;;
10216;SDS011;5152;59.674;16.838;2022-10-20T12:50:52;0.37;;;0.37;;
10216;SDS011;5152;59.674;16.838;2022-10-20T12:53:20;0.20;;;0.20;;
10216;SDS011;5152;59.674;16.838;2022-10-20T12:55:52;0.87;;;0.50;;
10216;SDS011;5152;59.674;16.838;2022-10-20T12:58:26;0.23;;;0.23;;
10216;SDS011;5152;59.674;16.838;2022-10-20T13:03:46;0.60;;;0.40;;
10216;SDS011;5152;59.674;16.838;2022-10-20T13:11:53;0.73;;;0.40;;
10216;SDS011;5152;59.674;16.838;2022-10-20T13:17:15;1.20;;;0.47;;
10216;SDS011;5152;59.674;16.838;2022-10-20T13:19:48;0.60;;;0.40;;
10216;SDS011;5152;59.674;16.838;2022-10-20T13:22:30;1.27;;;0.70;;
10216;SDS011;5152;59.674;16.838;2022-10-20T13:24:59;0.80;;;0.60;;
10216;SDS011;5152;59.674;16.838;2022-10-20T13:27:27;0.43;;;0.43;;
10216;SDS011;5152;59.674;16.838;2022-10-20T13:29:54;0.30;;;0.30;;
10216;SDS011;5152;59.674;16.838;2022-10-20T13:32:23;0.43;;;0.37;;
10216;SDS011;5152;59.674;16.838;2022-10-20T13:34:57;0.60;;;0.40;;
10216;SDS011;5152;59.674;16.838;2022-10-20T13:37:44;0.20;;;0.20;;
10216;SDS011;5152;59.674;16.838;2022-10-20T13:40:19;0.70;;;0.30;;
10216;SDS011;5152;59.674;16.838;2022-10-20T13:42:55;0.40;;;0.37;;
10216;SDS011;5152;59.674;16.838;2022-10-20T13:45:29;0.50;;;0.40;;
10216;SDS011;5152;59.674;16.838;2022-10-20T13:48:07;0.30;;;0.30;;
10216;SDS011;5152;59.674;16.838;2022-10-20T13:50:42;0.83;;;0.40;;
10216;SDS011;5152;59.674;16.838;2022-10-20T13:53:12;0.37;;;0.23;;
10216;SDS011;5152;59.674;16.838;2022-10-20T13:55:55;0.40;;;0.30;;
10216;SDS011;5152;59.674;16.838;2022-10-20T13:58:24;0.90;;;0.47;;
10216;SDS011;5152;59.674;16.838;2022-10-20T14:00:55;0.33;;;0.33;;
10216;SDS011;5152;59.674;16.838;2022-10-20T14:03:25;0.83;;;0.50;;
10216;SDS011;5152;59.674;16.838;2022-10-20T14:05:53;0.97;;;0.50;;
10216;SDS011;5152;59.674;16.838;2022-10-20T14:08:20;0.40;;;0.40;;
10216;SDS011;5152;59.674;16.838;2022-10-20T14:10:48;0.77;;;0.60;;
10216;SDS011;5152;59.674;16.838;2022-10-20T14:13:17;0.67;;;0.40;;
10216;SDS011;5152;59.674;16.838;2022-10-20T14:15:45;5.23;;;0.57;;
10216;SDS011;5152;59.674;16.838;2022-10-20T14:18:19;8.00;;;0.83;;
10216;SDS011;5152;59.674;16.838;2022-10-20T14:20:54;1.10;;;0.60;;
10216;SDS011;5152;59.674;16.838;2022-10-20T14:23:24;9.63;;;0.80;;
10216;SDS011;5152;59.674;16.838;2022-10-20T14:25:51;8.60;;;1.27;;
10216;SDS011;5152;59.674;16.838;2022-10-20T14:28:19;1.77;;;0.70;;
10216;SDS011;5152;59.674;16.838;2022-10-20T14:30:46;4.43;;;1.00;;
10216;SDS011;5152;59.674;16.838;2022-10-20T14:33:14;5.20;;;0.73;;
10216;SDS011;5152;59.674;16.838;2022-10-20T14:35:42;4.00;;;0.67;;
10216;SDS011;5152;59.674;16.838;2022-10-20T14:38:16;6.03;;;1.07;;
10216;SDS011;5152;59.674;16.838;2022-10-20T14:40:47;7.43;;;0.80;;
10216;SDS011;5152;59.674;16.838;2022-10-20T14:43:16;9.93;;;0.97;;
10216;SDS011;5152;59.674;16.838;2022-10-20T14:45:50;2.03;;;0.50;;
10216;SDS011;5152;59.674;16.838;2022-10-20T14:48:17;4.90;;;0.40;;
10216;SDS011;5152;59.674;16.838;2022-10-20T14:50:44;9.93;;;0.70;;
10216;SDS011;5152;59.674;16.838;2022-10-20T14:53:25;2.53;;;0.90;;
10216;SDS011;5152;59.674;16.838;2022-10-20T14:55:55;10.27;;;1.10;;
10216;SDS011;5152;59.674;16.838;2022-10-20T14:58:32;15.17;;;1.03;;
10216;SDS011;5152;59.674;16.838;2022-10-20T15:01:18;25.10;;;2.13;;
10216;SDS011;5152;59.674;16.838;2022-10-20T15:04:01;36.13;;;1.90;;
10216;SDS011;5152;59.674;16.838;2022-10-20T15:06:32;10.30;;;1.17;;
10216;SDS011;5152;59.674;16.838;2022-10-20T15:09:00;12.47;;;1.60;;
10216;SDS011;5152;59.674;16.838;2022-10-20T15:11:28;8.57;;;1.03;;
10216;SDS011;5152;59.674;16.838;2022-10-20T15:13:56;7.90;;;1.27;;
10216;SDS011;5152;59.674;16.838;2022-10-20T15:16:34;18.33;;;2.10;;
10216;SDS011;5152;59.674;16.838;2022-10-20T15:19:09;16.47;;;1.53;;
10216;SDS011;5152;59.674;16.838;2022-10-20T15:22:10;7.90;;;0.90;;
10216;SDS011;5152;59.674;16.838;2022-10-20T15:24:38;12.83;;;1.60;;
10216;SDS011;5152;59.674;16.838;2022-10-20T15:27:05;12.60;;;1.37;;
10216;SDS011;5152;59.674;16.838;2022-10-20T15:29:42;9.77;;;1.33;;
10216;SDS011;5152;59.674;16.838;2022-10-20T15:32:11;12.23;;;1.40;;
10216;SDS011;5152;59.674;16.838;2022-10-20T15:34:38;6.70;;;1.20;;
10216;SDS011;5152;59.674;16.838;2022-10-20T15:37:04;15.77;;;1.80;;
10216;SDS011;5152;59.674;16.838;2022-10-20T15:39:31;9.50;;;1.03;;
10216;SDS011;5152;59.674;16.838;2022-10-20T15:42:00;10.30;;;1.27;;
10216;SDS011;5152;59.674;16.838;2022-10-20T15:44:29;23.73;;;1.67;;